sensor_id;sensor_type;location;lat;lon;timestamp;pressure;altitude;pressure_sealevel;temperature;humidity
7802;BME280;3945;48.952;9.506;2023-09-18T00:02:18;97316.75;;;23.13;64.22
7802;BME280;3945;48.952;9.506;2023-09-18T00:04:44;97325.84;;;23.17;64.16
7802;BME280;3945;48.952;9.506;2023-09-18T00:07:11;97320.41;;;23.17;64.50
7802;BME280;3945;48.952;9.506;2023-09-18T00:09:39;97326.16;;;23.15;64.90
7802;BME280;3945;48.952;9.506;2023-09-18T00:12:05;97319.47;;;23.13;64.80
7802;BME280;3945;48.952;9.506;2023-09-18T00:14:32;97314.41;;;23.11;65.29
7802;BME280;3945;48.952;9.506;2023-09-18T00:16:58;97318.81;;;23.04;66.85
7802;BME280;3945;48.952;9.506;2023-09-18T00:19:25;97318.59;;;23.09;65.79
7802;BME280;3945;48.952;9.506;2023-09-18T00:21:51;97310.91;;;23.11;65.37
7802;BME280;3945;48.952;9.506;2023-09-18T00:24:19;97317.13;;;23.11;65.38
7802;BME280;3945;48.952;9.506;2023-09-18T00:26:47;97319.47;;;23.13;65.54
7802;BME280;3945;48.952;9.506;2023-09-18T00:29:13;97312.34;;;23.08;66.05
7802;BME280;3945;48.952;9.506;2023-09-18T00:31:40;97309.53;;;23.05;66.21
7802;BME280;3945;48.952;9.506;2023-09-18T00:34:06;97310.84;;;22.98;67.09
7802;BME280;3945;48.952;9.506;2023-09-18T00:36:32;97314.25;;;22.83;67.31
7802;BME280;3945;48.952;9.506;2023-09-18T00:38:59;97305.75;;;22.64;68.29
7802;BME280;3945;48.952;9.506;2023-09-18T00:41:25;97298.13;;;22.45;68.64
7802;BME280;3945;48.952;9.506;2023-09-18T00:43:53;97294.91;;;22.31;69.36
7802;BME280;3945;48.952;9.506;2023-09-18T00:46:20;97279.09;;;22.12;70.07
7802;BME280;3945;48.952;9.506;2023-09-18T00:48:46;97269.00;;;22.01;70.70
7802;BME280;3945;48.952;9.506;2023-09-18T00:51:13;97266.66;;;21.91;71.37
7802;BME280;3945;48.952;9.506;2023-09-18T00:53:41;97270.88;;;21.79;72.25
7802;BME280;3945;48.952;9.506;2023-09-18T00:56:09;97271.75;;;21.71;72.68
7802;BME280;3945;48.952;9.506;2023-09-18T00:58:36;97261.63;;;21.60;73.08
7802;BME280;3945;48.952;9.506;2023-09-18T01:01:04;97265.19;;;21.52;73.59
7802;BME280;3945;48.952;9.506;2023-09-18T01:03:31;97272.34;;;21.48;73.76
7802;BME280;3945;48.952;9.506;2023-09-18T01:05:57;97255.81;;;21.40;74.47
7802;BME280;3945;48.952;9.506;2023-09-18T01:08:24;97256.03;;;21.35;74.42
7802;BME280;3945;48.952;9.506;2023-09-18T01:10:53;97264.97;;;21.27;75.29
7802;BME280;3945;48.952;9.506;2023-09-18T01:13:23;97273.59;;;21.21;75.45
7802;BME280;3945;48.952;9.506;2023-09-18T01:15:54;97267.56;;;21.24;75.26
7802;BME280;3945;48.952;9.506;2023-09-18T01:18:22;97256.72;;;21.24;75.45
7802;BME280;3945;48.952;9.506;2023-09-18T01:20:49;97265.28;;;21.26;75.73
7802;BME280;3945;48.952;9.506;2023-09-18T01:23:16;97247.34;;;21.21;76.02
7802;BME280;3945;48.952;9.506;2023-09-18T01:25:43;97245.28;;;21.18;76.23
7802;BME280;3945;48.952;9.506;2023-09-18T01:28:09;97242.25;;;21.11;76.98
7802;BME280;3945;48.952;9.506;2023-09-18T01:30:36;97242.75;;;21.04;77.04
7802;BME280;3945;48.952;9.506;2023-09-18T01:33:03;97238.66;;;20.98;77.28
7802;BME280;3945;48.952;9.506;2023-09-18T01:35:30;97242.16;;;20.99;77.21
7802;BME280;3945;48.952;9.506;2023-09-18T01:37:57;97241.34;;;20.98;77.70
7802;BME280;3945;48.952;9.506;2023-09-18T01:40:26;97240.88;;;20.96;78.37
7802;BME280;3945;48.952;9.506;2023-09-18T01:42:52;97236.78;;;20.90;78.87
7802;BME280;3945;48.952;9.506;2023-09-18T01:45:19;97236.47;;;20.83;79.30
7802;BME280;3945;48.952;9.506;2023-09-18T01:47:45;97245.06;;;20.85;79.05
7802;BME280;3945;48.952;9.506;2023-09-18T01:50:12;97244.44;;;20.88;79.09
7802;BME280;3945;48.952;9.506;2023-09-18T01:52:38;97252.22;;;20.90;79.37
7802;BME280;3945;48.952;9.506;2023-09-18T01:55:05;97253.00;;;20.90;79.68
7802;BME280;3945;48.952;9.506;2023-09-18T01:57:34;97250.28;;;20.90;79.59
7802;BME280;3945;48.952;9.506;2023-09-18T02:00:01;97251.41;;;20.89;80.02
7802;BME280;3945;48.952;9.506;2023-09-18T02:02:32;97247.59;;;20.90;79.71
7802;BME280;3945;48.952;9.506;2023-09-18T02:04:59;97259.22;;;20.91;80.14
7802;BME280;3945;48.952;9.506;2023-09-18T02:07:25;97273.06;;;20.89;80.04
7802;BME280;3945;48.952;9.506;2023-09-18T02:09:52;97294.69;;;20.89;79.75
7802;BME280;3945;48.952;9.506;2023-09-18T02:12:18;97338.78;;;20.90;79.52
7802;BME280;3945;48.952;9.506;2023-09-18T02:14:46;97381.59;;;20.88;79.98
7802;BME280;3945;48.952;9.506;2023-09-18T02:17:12;97343.91;;;20.74;80.22
7802;BME280;3945;48.952;9.506;2023-09-18T02:19:39;97333.59;;;20.59;80.44
7802;BME280;3945;48.952;9.506;2023-09-18T02:22:05;97348.72;;;20.51;80.77
7802;BME280;3945;48.952;9.506;2023-09-18T02:24:32;97352.69;;;20.45;81.49
7802;BME280;3945;48.952;9.506;2023-09-18T02:26:58;97339.63;;;20.39;83.70
7802;BME280;3945;48.952;9.506;2023-09-18T02:29:25;97324.19;;;20.31;84.90
7802;BME280;3945;48.952;9.506;2023-09-18T02:31:52;97325.00;;;20.22;86.94
7802;BME280;3945;48.952;9.506;2023-09-18T02:34:19;97310.38;;;20.15;88.77
7802;BME280;3945;48.952;9.506;2023-09-18T02:36:45;97294.16;;;20.06;91.07
7802;BME280;3945;48.952;9.506;2023-09-18T02:39:12;97263.63;;;20.06;90.71
7802;BME280;3945;48.952;9.506;2023-09-18T02:41:38;97220.09;;;20.16;89.26
7802;BME280;3945;48.952;9.506;2023-09-18T02:44:04;97211.16;;;20.33;86.00
7802;BME280;3945;48.952;9.506;2023-09-18T02:46:31;97199.56;;;20.41;86.62
7802;BME280;3945;48.952;9.506;2023-09-18T02:48:58;97185.84;;;20.54;84.69
7802;BME280;3945;48.952;9.506;2023-09-18T02:51:25;97178.50;;;20.63;84.71
7802;BME280;3945;48.952;9.506;2023-09-18T02:53:52;97195.00;;;20.71;84.35
7802;BME280;3945;48.952;9.506;2023-09-18T02:56:18;97205.66;;;20.76;86.16
7802;BME280;3945;48.952;9.506;2023-09-18T02:58:44;97217.44;;;20.71;87.54
7802;BME280;3945;48.952;9.506;2023-09-18T03:01:11;97206.84;;;20.57;88.98
7802;BME280;3945;48.952;9.506;2023-09-18T03:03:37;97222.75;;;20.50;88.54
7802;BME280;3945;48.952;9.506;2023-09-18T03:06:05;97233.41;;;20.47;88.21
7802;BME280;3945;48.952;9.506;2023-09-18T03:08:31;97230.88;;;20.42;88.42
7802;BME280;3945;48.952;9.506;2023-09-18T03:10:58;97241.22;;;20.40;88.87
7802;BME280;3945;48.952;9.506;2023-09-18T03:13:25;97254.28;;;20.38;89.35
7802;BME280;3945;48.952;9.506;2023-09-18T03:15:52;97275.22;;;20.32;90.69
7802;BME280;3945;48.952;9.506;2023-09-18T03:18:18;97283.34;;;20.23;91.24
7802;BME280;3945;48.952;9.506;2023-09-18T03:20:44;97272.84;;;20.13;90.48
7802;BME280;3945;48.952;9.506;2023-09-18T03:23:12;97255.03;;;20.04;90.28
7802;BME280;3945;48.952;9.506;2023-09-18T03:25:39;97257.44;;;19.97;90.53
7802;BME280;3945;48.952;9.506;2023-09-18T03:28:05;97250.91;;;19.89;90.48
7802;BME280;3945;48.952;9.506;2023-09-18T03:30:32;97251.56;;;19.86;89.86
7802;BME280;3945;48.952;9.506;2023-09-18T03:32:57;97252.84;;;19.80;89.95
7802;BME280;3945;48.952;9.506;2023-09-18T03:35:23;97253.44;;;19.77;90.00
7802;BME280;3945;48.952;9.506;2023-09-18T03:37:51;97253.16;;;19.78;90.13
7802;BME280;3945;48.952;9.506;2023-09-18T03:40:20;97241.06;;;19.76;90.31
7802;BME280;3945;48.952;9.506;2023-09-18T03:42:46;97241.38;;;19.74;90.38
7802;BME280;3945;48.952;9.506;2023-09-18T03:45:13;97231.53;;;19.70;90.59
7802;BME280;3945;48.952;9.506;2023-09-18T03:47:41;97235.97;;;19.66;90.78
7802;BME280;3945;48.952;9.506;2023-09-18T03:50:07;97240.91;;;19.64;91.20
7802;BME280;3945;48.952;9.506;2023-09-18T03:52:34;97250.09;;;19.63;91.74
7802;BME280;3945;48.952;9.506;2023-09-18T03:55:00;97259.63;;;19.60;92.19
7802;BME280;3945;48.952;9.506;2023-09-18T03:57:28;97269.97;;;19.58;92.50
7802;BME280;3945;48.952;9.506;2023-09-18T03:59:54;97276.78;;;19.56;92.87
7802;BME280;3945;48.952;9.506;2023-09-18T04:02:21;97280.09;;;19.53;93.49
7802;BME280;3945;48.952;9.506;2023-09-18T04:04:47;97296.78;;;19.55;93.79
7802;BME280;3945;48.952;9.506;2023-09-18T04:07:14;97307.56;;;19.55;93.86
7802;BME280;3945;48.952;9.506;2023-09-18T04:09:41;97329.97;;;19.55;93.56
7802;BME280;3945;48.952;9.506;2023-09-18T04:12:07;97329.47;;;19.53;93.66
7802;BME280;3945;48.952;9.506;2023-09-18T04:14:36;97357.91;;;19.51;93.76
7802;BME280;3945;48.952;9.506;2023-09-18T04:17:02;97378.38;;;19.52;94.10
7802;BME280;3945;48.952;9.506;2023-09-18T04:19:29;97382.19;;;19.51;94.03
7802;BME280;3945;48.952;9.506;2023-09-18T04:21:55;97385.19;;;19.49;94.41
7802;BME280;3945;48.952;9.506;2023-09-18T04:24:22;97372.63;;;19.44;94.55
7802;BME280;3945;48.952;9.506;2023-09-18T04:26:48;97362.56;;;19.36;95.08
7802;BME280;3945;48.952;9.506;2023-09-18T04:29:16;97347.13;;;19.28;95.32
7802;BME280;3945;48.952;9.506;2023-09-18T04:31:44;97339.50;;;19.22;95.85
7802;BME280;3945;48.952;9.506;2023-09-18T04:34:11;97352.00;;;19.18;96.26
7802;BME280;3945;48.952;9.506;2023-09-18T04:36:37;97371.81;;;19.13;96.60
7802;BME280;3945;48.952;9.506;2023-09-18T04:39:04;97353.53;;;19.10;97.34
7802;BME280;3945;48.952;9.506;2023-09-18T04:41:30;97348.94;;;19.10;97.27
7802;BME280;3945;48.952;9.506;2023-09-18T04:43:56;97330.69;;;19.07;97.66
7802;BME280;3945;48.952;9.506;2023-09-18T04:46:23;97329.91;;;19.07;97.57
7802;BME280;3945;48.952;9.506;2023-09-18T04:48:51;97327.00;;;19.03;97.83
7802;BME280;3945;48.952;9.506;2023-09-18T04:51:17;97311.94;;;19.02;97.85
7802;BME280;3945;48.952;9.506;2023-09-18T04:53:44;97301.94;;;19.03;97.77
7802;BME280;3945;48.952;9.506;2023-09-18T04:56:10;97279.91;;;19.01;97.87
7802;BME280;3945;48.952;9.506;2023-09-18T04:58:37;97251.34;;;19.00;97.68
7802;BME280;3945;48.952;9.506;2023-09-18T05:01:03;97249.25;;;18.97;98.05
7802;BME280;3945;48.952;9.506;2023-09-18T05:03:32;97230.22;;;18.93;98.01
7802;BME280;3945;48.952;9.506;2023-09-18T05:06:00;97223.84;;;18.89;98.34
7802;BME280;3945;48.952;9.506;2023-09-18T05:08:28;97213.06;;;18.89;98.41
7802;BME280;3945;48.952;9.506;2023-09-18T05:10:54;97206.56;;;18.90;98.48
7802;BME280;3945;48.952;9.506;2023-09-18T05:13:20;97202.91;;;18.95;98.08
7802;BME280;3945;48.952;9.506;2023-09-18T05:15:47;97248.81;;;19.03;97.77
7802;BME280;3945;48.952;9.506;2023-09-18T05:18:13;97256.78;;;19.08;98.57
7802;BME280;3945;48.952;9.506;2023-09-18T05:20:39;97243.59;;;19.07;98.47
7802;BME280;3945;48.952;9.506;2023-09-18T05:23:07;97252.16;;;19.09;98.64
7802;BME280;3945;48.952;9.506;2023-09-18T05:25:33;97255.34;;;19.11;98.72
7802;BME280;3945;48.952;9.506;2023-09-18T05:28:03;97259.03;;;19.15;98.32
7802;BME280;3945;48.952;9.506;2023-09-18T05:30:31;97262.66;;;19.19;98.13
7802;BME280;3945;48.952;9.506;2023-09-18T05:32:59;97262.34;;;19.21;98.29
7802;BME280;3945;48.952;9.506;2023-09-18T05:35:29;97269.34;;;19.22;98.46
7802;BME280;3945;48.952;9.506;2023-09-18T05:37:55;97266.34;;;19.23;98.37
7802;BME280;3945;48.952;9.506;2023-09-18T05:40:25;97260.75;;;19.20;98.55
7802;BME280;3945;48.952;9.506;2023-09-18T05:42:53;97257.91;;;19.16;98.83
7802;BME280;3945;48.952;9.506;2023-09-18T05:45:19;97243.94;;;19.14;99.10
7802;BME280;3945;48.952;9.506;2023-09-18T05:47:46;97247.25;;;19.11;99.12
7802;BME280;3945;48.952;9.506;2023-09-18T05:50:12;97257.41;;;19.14;98.71
7802;BME280;3945;48.952;9.506;2023-09-18T05:52:41;97276.66;;;19.21;99.33
7802;BME280;3945;48.952;9.506;2023-09-18T05:55:07;97282.84;;;19.22;99.21
7802;BME280;3945;48.952;9.506;2023-09-18T05:57:35;97279.34;;;19.21;99.37
7802;BME280;3945;48.952;9.506;2023-09-18T06:00:02;97286.44;;;19.17;99.95
7802;BME280;3945;48.952;9.506;2023-09-18T06:02:28;97287.59;;;19.16;99.79
7802;BME280;3945;48.952;9.506;2023-09-18T06:04:55;97300.75;;;19.18;99.67
7802;BME280;3945;48.952;9.506;2023-09-18T06:07:22;97294.53;;;19.17;99.60
7802;BME280;3945;48.952;9.506;2023-09-18T06:09:49;97288.84;;;19.19;99.93
7802;BME280;3945;48.952;9.506;2023-09-18T06:12:15;97284.44;;;19.23;100.00
7802;BME280;3945;48.952;9.506;2023-09-18T06:14:43;97281.41;;;19.24;100.00
7802;BME280;3945;48.952;9.506;2023-09-18T06:17:10;97278.25;;;19.31;100.00
7802;BME280;3945;48.952;9.506;2023-09-18T06:19:36;97285.72;;;19.34;100.00
7802;BME280;3945;48.952;9.506;2023-09-18T06:22:03;97276.69;;;19.38;100.00
7802;BME280;3945;48.952;9.506;2023-09-18T06:24:29;97279.56;;;19.42;100.00
7802;BME280;3945;48.952;9.506;2023-09-18T06:26:56;97275.44;;;19.44;100.00
7802;BME280;3945;48.952;9.506;2023-09-18T06:29:22;97268.16;;;19.45;100.00
7802;BME280;3945;48.952;9.506;2023-09-18T06:31:50;97267.34;;;19.44;99.53
7802;BME280;3945;48.952;9.506;2023-09-18T06:34:17;97265.34;;;19.50;99.29
7802;BME280;3945;48.952;9.506;2023-09-18T06:36:43;97268.38;;;19.57;99.22
7802;BME280;3945;48.952;9.506;2023-09-18T06:39:09;97269.31;;;19.61;99.37
7802;BME280;3945;48.952;9.506;2023-09-18T06:41:35;97261.53;;;19.68;99.16
7802;BME280;3945;48.952;9.506;2023-09-18T06:44:02;97275.22;;;19.72;99.22
7802;BME280;3945;48.952;9.506;2023-09-18T06:46:28;97280.75;;;19.75;99.45
7802;BME280;3945;48.952;9.506;2023-09-18T06:48:56;97290.31;;;19.81;99.69
7802;BME280;3945;48.952;9.506;2023-09-18T06:51:25;97303.81;;;19.90;99.58
7802;BME280;3945;48.952;9.506;2023-09-18T06:53:52;97305.25;;;19.96;98.44
7802;BME280;3945;48.952;9.506;2023-09-18T06:56:18;97309.88;;;20.04;95.86
7802;BME280;3945;48.952;9.506;2023-09-18T06:58:45;97306.69;;;20.11;92.35
7802;BME280;3945;48.952;9.506;2023-09-18T07:01:12;97317.50;;;20.19;92.64
7802;BME280;3945;48.952;9.506;2023-09-18T07:03:40;97317.03;;;20.26;91.04
7802;BME280;3945;48.952;9.506;2023-09-18T07:06:08;97318.66;;;20.36;89.66
7802;BME280;3945;48.952;9.506;2023-09-18T07:08:34;97327.69;;;20.40;89.11
7802;BME280;3945;48.952;9.506;2023-09-18T07:11:01;97330.28;;;20.45;90.50
7802;BME280;3945;48.952;9.506;2023-09-18T07:13:27;97314.06;;;20.45;91.31
7802;BME280;3945;48.952;9.506;2023-09-18T07:15:54;97323.41;;;20.47;91.25
7802;BME280;3945;48.952;9.506;2023-09-18T07:18:23;97331.22;;;20.49;89.47
7802;BME280;3945;48.952;9.506;2023-09-18T07:20:50;97330.91;;;20.50;90.35
7802;BME280;3945;48.952;9.506;2023-09-18T07:23:18;97328.31;;;20.54;89.99
7802;BME280;3945;48.952;9.506;2023-09-18T07:25:44;97324.69;;;20.58;90.39
7802;BME280;3945;48.952;9.506;2023-09-18T07:28:13;97332.31;;;20.65;91.17
7802;BME280;3945;48.952;9.506;2023-09-18T07:30:42;97336.13;;;20.73;88.46
7802;BME280;3945;48.952;9.506;2023-09-18T07:33:09;97337.66;;;20.82;87.25
7802;BME280;3945;48.952;9.506;2023-09-18T07:35:35;97325.72;;;20.92;85.41
7802;BME280;3945;48.952;9.506;2023-09-18T07:38:02;97331.91;;;21.01;85.36
7802;BME280;3945;48.952;9.506;2023-09-18T07:40:30;97332.84;;;21.05;85.43
7802;BME280;3945;48.952;9.506;2023-09-18T07:42:57;97347.78;;;21.11;86.98
7802;BME280;3945;48.952;9.506;2023-09-18T07:45:23;97336.84;;;21.16;88.37
7802;BME280;3945;48.952;9.506;2023-09-18T07:47:49;97333.63;;;21.23;86.15
7802;BME280;3945;48.952;9.506;2023-09-18T07:50:16;97342.34;;;21.28;85.16
7802;BME280;3945;48.952;9.506;2023-09-18T07:52:43;97357.78;;;21.36;86.76
7802;BME280;3945;48.952;9.506;2023-09-18T07:55:09;97364.91;;;21.41;86.69
7802;BME280;3945;48.952;9.506;2023-09-18T07:57:37;97379.84;;;21.47;85.39
7802;BME280;3945;48.952;9.506;2023-09-18T08:00:04;97379.81;;;21.56;84.34
7802;BME280;3945;48.952;9.506;2023-09-18T08:02:32;97381.59;;;21.60;84.58
7802;BME280;3945;48.952;9.506;2023-09-18T08:05:00;97393.50;;;21.68;85.01
7802;BME280;3945;48.952;9.506;2023-09-18T08:07:27;97396.16;;;21.76;86.10
7802;BME280;3945;48.952;9.506;2023-09-18T08:09:53;97394.16;;;21.94;83.20
7802;BME280;3945;48.952;9.506;2023-09-18T08:12:19;97387.41;;;22.09;84.49
7802;BME280;3945;48.952;9.506;2023-09-18T08:14:47;97376.00;;;22.24;84.11
7802;BME280;3945;48.952;9.506;2023-09-18T08:17:15;97372.69;;;22.39;81.27
7802;BME280;3945;48.952;9.506;2023-09-18T08:19:41;97371.84;;;22.47;79.79
7802;BME280;3945;48.952;9.506;2023-09-18T08:22:09;97374.97;;;22.49;79.72
7802;BME280;3945;48.952;9.506;2023-09-18T08:24:36;97364.72;;;22.55;78.05
7802;BME280;3945;48.952;9.506;2023-09-18T08:27:03;97360.88;;;22.56;78.66
7802;BME280;3945;48.952;9.506;2023-09-18T08:29:29;97359.91;;;22.61;79.12
7802;BME280;3945;48.952;9.506;2023-09-18T08:31:57;97378.03;;;22.69;78.78
7802;BME280;3945;48.952;9.506;2023-09-18T08:34:23;97379.13;;;22.76;78.08
7802;BME280;3945;48.952;9.506;2023-09-18T08:36:49;97386.72;;;22.83;79.25
7802;BME280;3945;48.952;9.506;2023-09-18T08:39:16;97390.47;;;22.90;76.96
7802;BME280;3945;48.952;9.506;2023-09-18T08:41:42;97401.22;;;22.99;75.89
7802;BME280;3945;48.952;9.506;2023-09-18T08:44:09;97409.38;;;22.99;76.59
7802;BME280;3945;48.952;9.506;2023-09-18T08:46:35;97416.72;;;22.98;75.77
7802;BME280;3945;48.952;9.506;2023-09-18T08:49:04;97424.50;;;22.88;75.88
7802;BME280;3945;48.952;9.506;2023-09-18T08:51:30;97425.03;;;22.81;75.56
7802;BME280;3945;48.952;9.506;2023-09-18T08:53:57;97427.16;;;22.76;75.87
7802;BME280;3945;48.952;9.506;2023-09-18T08:56:23;97419.06;;;22.67;74.79
7802;BME280;3945;48.952;9.506;2023-09-18T08:58:50;97420.81;;;22.63;75.70
7802;BME280;3945;48.952;9.506;2023-09-18T09:01:18;97423.88;;;22.62;75.83
7802;BME280;3945;48.952;9.506;2023-09-18T09:03:44;97428.84;;;22.59;75.39
7802;BME280;3945;48.952;9.506;2023-09-18T09:06:12;97438.31;;;22.53;75.29
7802;BME280;3945;48.952;9.506;2023-09-18T09:08:38;97442.47;;;22.51;76.78
7802;BME280;3945;48.952;9.506;2023-09-18T09:11:05;97438.69;;;22.43;74.40
7802;BME280;3945;48.952;9.506;2023-09-18T09:13:31;97448.47;;;22.36;74.85
7802;BME280;3945;48.952;9.506;2023-09-18T09:15:58;97446.75;;;22.31;75.15
7802;BME280;3945;48.952;9.506;2023-09-18T09:18:26;97454.59;;;22.24;74.56
7802;BME280;3945;48.952;9.506;2023-09-18T09:20:53;97459.59;;;22.13;74.41
7802;BME280;3945;48.952;9.506;2023-09-18T09:23:24;97462.69;;;22.03;75.50
7802;BME280;3945;48.952;9.506;2023-09-18T09:25:51;97461.75;;;21.91;74.47
7802;BME280;3945;48.952;9.506;2023-09-18T09:28:28;97481.56;;;21.83;75.97
7802;BME280;3945;48.952;9.506;2023-09-18T09:30:59;97481.41;;;21.70;77.90
7802;BME280;3945;48.952;9.506;2023-09-18T09:33:26;97493.56;;;21.56;80.49
7802;BME280;3945;48.952;9.506;2023-09-18T09:35:52;97503.19;;;21.27;81.29
7802;BME280;3945;48.952;9.506;2023-09-18T09:38:19;97494.41;;;21.13;83.37
7802;BME280;3945;48.952;9.506;2023-09-18T09:40:48;97484.84;;;20.98;85.90
7802;BME280;3945;48.952;9.506;2023-09-18T09:43:15;97474.69;;;20.87;86.58
7802;BME280;3945;48.952;9.506;2023-09-18T09:45:41;97468.00;;;20.84;87.98
7802;BME280;3945;48.952;9.506;2023-09-18T09:48:07;97479.13;;;20.83;87.44
7802;BME280;3945;48.952;9.506;2023-09-18T09:50:35;97469.28;;;20.87;88.68
7802;BME280;3945;48.952;9.506;2023-09-18T09:53:10;97451.94;;;20.88;86.88
7802;BME280;3945;48.952;9.506;2023-09-18T09:55:37;97455.09;;;20.90;87.05
7802;BME280;3945;48.952;9.506;2023-09-18T09:58:06;97448.88;;;20.89;88.22
7802;BME280;3945;48.952;9.506;2023-09-18T10:00:33;97459.41;;;20.91;88.38
7802;BME280;3945;48.952;9.506;2023-09-18T10:03:06;97447.31;;;20.88;88.49
7802;BME280;3945;48.952;9.506;2023-09-18T10:05:34;97442.38;;;20.90;89.35
7802;BME280;3945;48.952;9.506;2023-09-18T10:08:02;97437.63;;;20.87;88.90
7802;BME280;3945;48.952;9.506;2023-09-18T10:10:30;97447.78;;;20.90;89.63
7802;BME280;3945;48.952;9.506;2023-09-18T10:12:58;97446.34;;;20.93;87.39
7802;BME280;3945;48.952;9.506;2023-09-18T10:15:28;97456.88;;;20.94;88.00
7802;BME280;3945;48.952;9.506;2023-09-18T10:17:58;97458.13;;;20.97;88.09
7802;BME280;3945;48.952;9.506;2023-09-18T10:20:26;97462.28;;;21.03;88.55
7802;BME280;3945;48.952;9.506;2023-09-18T10:22:56;97465.91;;;21.07;89.49
7802;BME280;3945;48.952;9.506;2023-09-18T10:25:23;97462.25;;;21.12;86.89
7802;BME280;3945;48.952;9.506;2023-09-18T10:27:51;97455.91;;;21.16;87.30
7802;BME280;3945;48.952;9.506;2023-09-18T10:30:18;97461.63;;;21.15;86.64
7802;BME280;3945;48.952;9.506;2023-09-18T10:32:46;97462.41;;;21.07;87.00
7802;BME280;3945;48.952;9.506;2023-09-18T10:35:13;97472.44;;;20.97;86.81
7802;BME280;3945;48.952;9.506;2023-09-18T10:37:40;97471.19;;;20.95;87.05
7802;BME280;3945;48.952;9.506;2023-09-18T10:40:11;97488.22;;;20.95;87.89
7802;BME280;3945;48.952;9.506;2023-09-18T10:42:40;97507.78;;;20.92;88.42
7802;BME280;3945;48.952;9.506;2023-09-18T10:45:07;97519.22;;;20.89;88.25
7802;BME280;3945;48.952;9.506;2023-09-18T10:47:35;97520.69;;;20.87;89.28
7802;BME280;3945;48.952;9.506;2023-09-18T10:50:04;97523.53;;;20.82;88.25
7802;BME280;3945;48.952;9.506;2023-09-18T10:52:32;97524.16;;;20.79;89.71
7802;BME280;3945;48.952;9.506;2023-09-18T10:54:58;97535.16;;;20.74;89.80
7802;BME280;3945;48.952;9.506;2023-09-18T10:57:27;97526.53;;;20.72;90.51
7802;BME280;3945;48.952;9.506;2023-09-18T10:59:54;97538.47;;;20.71;89.50
7802;BME280;3945;48.952;9.506;2023-09-18T11:02:20;97523.00;;;20.62;89.31
7802;BME280;3945;48.952;9.506;2023-09-18T11:04:47;97527.28;;;20.55;88.69
7802;BME280;3945;48.952;9.506;2023-09-18T11:07:22;97516.31;;;20.51;89.34
7802;BME280;3945;48.952;9.506;2023-09-18T11:09:49;97509.31;;;20.50;89.68
7802;BME280;3945;48.952;9.506;2023-09-18T11:12:16;97504.72;;;20.51;90.65
7802;BME280;3945;48.952;9.506;2023-09-18T11:14:44;97501.84;;;20.47;89.84
7802;BME280;3945;48.952;9.506;2023-09-18T11:17:32;97483.56;;;20.44;90.12
7802;BME280;3945;48.952;9.506;2023-09-18T11:20:03;97474.78;;;20.39;90.75
7802;BME280;3945;48.952;9.506;2023-09-18T11:22:32;97466.47;;;20.26;90.26
7802;BME280;3945;48.952;9.506;2023-09-18T11:27:52;97448.91;;;19.98;91.07
7802;BME280;3945;48.952;9.506;2023-09-18T11:30:20;97445.25;;;19.94;92.60
7802;BME280;3945;48.952;9.506;2023-09-18T11:32:46;97448.06;;;19.89;90.64
7802;BME280;3945;48.952;9.506;2023-09-18T11:35:13;97450.44;;;19.82;90.38
7802;BME280;3945;48.952;9.506;2023-09-18T11:37:43;97452.97;;;19.78;90.46
7802;BME280;3945;48.952;9.506;2023-09-18T11:45:32;97439.38;;;19.61;91.19
7802;BME280;3945;48.952;9.506;2023-09-18T11:47:58;97475.28;;;19.62;91.67
7802;BME280;3945;48.952;9.506;2023-09-18T11:50:25;97486.72;;;19.67;91.57
7802;BME280;3945;48.952;9.506;2023-09-18T11:52:57;97486.44;;;19.69;92.16
7802;BME280;3945;48.952;9.506;2023-09-18T11:55:23;97481.81;;;19.69;93.03
7802;BME280;3945;48.952;9.506;2023-09-18T11:57:50;97479.31;;;19.73;92.85
7802;BME280;3945;48.952;9.506;2023-09-18T12:00:21;97467.75;;;19.81;93.41
7802;BME280;3945;48.952;9.506;2023-09-18T12:02:49;97455.81;;;19.82;92.63
7802;BME280;3945;48.952;9.506;2023-09-18T12:05:15;97461.13;;;19.87;92.37
7802;BME280;3945;48.952;9.506;2023-09-18T12:07:42;97461.44;;;19.94;93.20
7802;BME280;3945;48.952;9.506;2023-09-18T12:10:11;97458.59;;;19.99;92.27
7802;BME280;3945;48.952;9.506;2023-09-18T12:12:38;97471.81;;;20.01;89.79
7802;BME280;3945;48.952;9.506;2023-09-18T12:15:05;97483.25;;;20.06;91.51
7802;BME280;3945;48.952;9.506;2023-09-18T12:17:31;97478.81;;;20.10;91.48
7802;BME280;3945;48.952;9.506;2023-09-18T12:19:58;97468.03;;;20.19;92.33
7802;BME280;3945;48.952;9.506;2023-09-18T12:22:25;97486.03;;;20.32;88.12
7802;BME280;3945;48.952;9.506;2023-09-18T12:24:51;97478.25;;;20.31;87.79
7802;BME280;3945;48.952;9.506;2023-09-18T12:27:19;97493.38;;;20.40;89.23
7802;BME280;3945;48.952;9.506;2023-09-18T12:29:45;97496.91;;;20.49;89.96
7802;BME280;3945;48.952;9.506;2023-09-18T12:32:12;97498.53;;;20.59;89.56
7802;BME280;3945;48.952;9.506;2023-09-18T12:34:40;97499.81;;;20.70;88.01
7802;BME280;3945;48.952;9.506;2023-09-18T12:37:07;97506.81;;;20.71;87.35
7802;BME280;3945;48.952;9.506;2023-09-18T12:39:34;97525.75;;;20.71;87.88
7802;BME280;3945;48.952;9.506;2023-09-18T12:42:01;97502.50;;;20.70;89.05
7802;BME280;3945;48.952;9.506;2023-09-18T12:44:29;97474.34;;;20.71;87.46
7802;BME280;3945;48.952;9.506;2023-09-18T12:46:56;97455.25;;;20.67;87.40
7802;BME280;3945;48.952;9.506;2023-09-18T12:49:22;97459.56;;;20.69;87.59
7802;BME280;3945;48.952;9.506;2023-09-18T12:51:56;97463.84;;;20.70;87.84
7802;BME280;3945;48.952;9.506;2023-09-18T12:54:36;97466.41;;;20.66;87.19
7802;BME280;3945;48.952;9.506;2023-09-18T12:57:03;97462.44;;;20.72;89.56
7802;BME280;3945;48.952;9.506;2023-09-18T12:59:32;97456.22;;;20.72;85.46
7802;BME280;3945;48.952;9.506;2023-09-18T13:02:00;97464.97;;;20.77;85.68
7802;BME280;3945;48.952;9.506;2023-09-18T13:04:29;97457.47;;;20.83;84.04
7802;BME280;3945;48.952;9.506;2023-09-18T13:07:02;97464.97;;;20.86;85.51
7802;BME280;3945;48.952;9.506;2023-09-18T13:09:29;97462.91;;;20.91;84.60
7802;BME280;3945;48.952;9.506;2023-09-18T13:11:55;97464.63;;;21.04;84.84
7802;BME280;3945;48.952;9.506;2023-09-18T13:14:22;97480.28;;;21.16;84.31
7802;BME280;3945;48.952;9.506;2023-09-18T13:16:50;97472.91;;;21.25;83.76
7802;BME280;3945;48.952;9.506;2023-09-18T13:19:16;97479.44;;;21.33;85.99
7802;BME280;3945;48.952;9.506;2023-09-18T13:21:46;97477.84;;;21.40;83.74
7802;BME280;3945;48.952;9.506;2023-09-18T13:24:23;97460.31;;;21.47;83.59
7802;BME280;3945;48.952;9.506;2023-09-18T13:26:52;97471.91;;;21.56;82.73
7802;BME280;3945;48.952;9.506;2023-09-18T13:29:18;97457.72;;;21.67;81.76
7802;BME280;3945;48.952;9.506;2023-09-18T13:31:45;97471.69;;;21.78;82.29